sensor_id;sensor_type;location;lat;lon;timestamp;pressure;altitude;pressure_sealevel;temperature;humidity
49627;BME280;35527;54.616;39.786;2023-03-01T00:01:30;98961.53;;;-2.90;77.21
49627;BME280;35527;54.616;39.786;2023-03-01T00:04:34;98935.34;;;-3.09;76.36
49627;BME280;35527;54.616;39.786;2023-03-01T00:07:37;98964.03;;;-3.01;75.13
49627;BME280;35527;54.616;39.786;2023-03-01T00:10:40;98964.03;;;-3.07;74.03
49627;BME280;35527;54.616;39.786;2023-03-01T00:13:44;98946.25;;;-3.27;72.58
49627;BME280;35527;54.616;39.786;2023-03-01T00:16:49;98961.47;;;-3.25;72.38
49627;BME280;35527;54.616;39.786;2023-03-01T00:19:53;98953.88;;;-3.31;71.46
49627;BME280;35527;54.616;39.786;2023-03-01T00:22:56;98982.50;;;-3.29;71.17
49627;BME280;35527;54.616;39.786;2023-03-01T00:25:59;98972.41;;;-3.37;70.32
49627;BME280;35527;54.616;39.786;2023-03-01T00:29:02;98931.84;;;-3.63;70.04
49627;BME280;35527;54.616;39.786;2023-03-01T00:32:06;98975.72;;;-3.41;69.75
49627;BME280;35527;54.616;39.786;2023-03-01T00:35:08;98939.44;;;-3.60;69.04
49627;BME280;35527;54.616;39.786;2023-03-01T00:38:14;98968.13;;;-3.52;68.84
49627;BME280;35527;54.616;39.786;2023-03-01T00:41:18;98965.63;;;-3.49;68.51
49627;BME280;35527;54.616;39.786;2023-03-01T00:44:23;98972.34;;;-3.45;67.80
49627;BME280;35527;54.616;39.786;2023-03-01T00:47:29;98973.16;;;-3.56;67.53
49627;BME280;35527;54.616;39.786;2023-03-01T00:51:14;98944.47;;;-3.68;67.44
49627;BME280;35527;54.616;39.786;2023-03-01T00:54:20;98970.56;;;-3.67;67.36
49627;BME280;35527;54.616;39.786;2023-03-01T00:57:23;98959.59;;;-3.77;67.11
49627;BME280;35527;54.616;39.786;2023-03-01T01:00:29;98946.06;;;-3.88;67.35
49627;BME280;35527;54.616;39.786;2023-03-01T01:03:32;98937.63;;;-3.90;66.72
49627;BME280;35527;54.616;39.786;2023-03-01T01:06:41;98938.44;;;-3.93;66.45
49627;BME280;35527;54.616;39.786;2023-03-01T01:09:46;98933.31;;;-4.08;66.35
49627;BME280;35527;54.616;39.786;2023-03-01T01:12:49;98945.97;;;-4.03;65.64
49627;BME280;35527;54.616;39.786;2023-03-01T01:15:52;98958.69;;;-3.91;65.38
49627;BME280;35527;54.616;39.786;2023-03-01T01:18:57;98937.44;;;-4.24;64.88
49627;BME280;35527;54.616;39.786;2023-03-01T01:22:03;98951.78;;;-4.20;64.75
49627;BME280;35527;54.616;39.786;2023-03-01T01:25:07;98939.91;;;-4.33;64.77
49627;BME280;35527;54.616;39.786;2023-03-01T01:28:10;98956.81;;;-4.26;65.02
49627;BME280;35527;54.616;39.786;2023-03-01T01:31:14;98953.41;;;-4.26;64.96
49627;BME280;35527;54.616;39.786;2023-03-01T01:34:21;98947.50;;;-4.30;64.64
49627;BME280;35527;54.616;39.786;2023-03-01T01:37:26;98946.63;;;-4.32;64.00
49627;BME280;35527;54.616;39.786;2023-03-01T01:40:34;98939.81;;;-4.47;63.87
49627;BME280;35527;54.616;39.786;2023-03-01T01:43:43;98959.25;;;-4.32;63.73
49627;BME280;35527;54.616;39.786;2023-03-01T01:50:14;98952.53;;;-4.35;63.98
49627;BME280;35527;54.616;39.786;2023-03-01T01:53:52;98963.38;;;-4.48;64.51
49627;BME280;35527;54.616;39.786;2023-03-01T01:57:26;98945.63;;;-4.60;64.56
49627;BME280;35527;54.616;39.786;2023-03-01T02:00:30;98938.81;;;-4.67;64.68
49627;BME280;35527;54.616;39.786;2023-03-01T02:03:37;98954.75;;;-4.73;64.11
49627;BME280;35527;54.616;39.786;2023-03-01T02:06:55;98961.59;;;-4.58;64.70
49627;BME280;35527;54.616;39.786;2023-03-01T02:10:02;98943.00;;;-4.69;63.74
49627;BME280;35527;54.616;39.786;2023-03-01T02:13:06;98957.34;;;-4.64;63.75
49627;BME280;35527;54.616;39.786;2023-03-01T02:16:12;98930.28;;;-4.83;64.11
49627;BME280;35527;54.616;39.786;2023-03-01T02:19:37;98953.78;;;-4.89;63.93
49627;BME280;35527;54.616;39.786;2023-03-01T02:23:09;98967.28;;;-4.85;63.78
49627;BME280;35527;54.616;39.786;2023-03-01T02:26:45;98937.78;;;-4.91;63.83
49627;BME280;35527;54.616;39.786;2023-03-01T02:29:50;98934.34;;;-4.99;64.51
49627;BME280;35527;54.616;39.786;2023-03-01T02:32:56;98958.81;;;-4.90;64.83
49627;BME280;35527;54.616;39.786;2023-03-01T02:36:17;98958.78;;;-4.93;64.55
49627;BME280;35527;54.616;39.786;2023-03-01T02:39:26;98945.25;;;-5.03;64.70
49627;BME280;35527;54.616;39.786;2023-03-01T02:42:58;98958.72;;;-5.00;63.88
49627;BME280;35527;54.616;39.786;2023-03-01T02:46:07;98968.84;;;-4.96;64.15
49627;BME280;35527;54.616;39.786;2023-03-01T02:49:29;98918.94;;;-5.27;63.82
49627;BME280;35527;54.616;39.786;2023-03-01T02:53:01;98960.38;;;-5.02;63.89
49627;BME280;35527;54.616;39.786;2023-03-01T02:56:08;98958.59;;;-5.13;63.65
49627;BME280;35527;54.616;39.786;2023-03-01T02:59:20;98966.19;;;-5.10;64.10
49627;BME280;35527;54.616;39.786;2023-03-01T03:02:29;98965.41;;;-5.05;64.03
49627;BME280;35527;54.616;39.786;2023-03-01T03:05:50;98935.72;;;-5.32;63.50
49627;BME280;35527;54.616;39.786;2023-03-01T03:08:54;98926.50;;;-5.27;63.44
49627;BME280;35527;54.616;39.786;2023-03-01T03:11:57;98971.22;;;-5.10;63.66
49627;BME280;35527;54.616;39.786;2023-03-01T03:15:29;98938.16;;;-5.38;62.72
49627;BME280;35527;54.616;39.786;2023-03-01T03:18:32;98952.47;;;-5.37;63.44
49627;BME280;35527;54.616;39.786;2023-03-01T03:21:39;98966.72;;;-5.40;63.14
49627;BME280;35527;54.616;39.786;2023-03-01T03:24:43;98965.06;;;-5.40;64.59
49627;BME280;35527;54.616;39.786;2023-03-01T03:27:47;98957.41;;;-5.48;64.36
49627;BME280;35527;54.616;39.786;2023-03-01T03:30:52;98958.38;;;-5.33;63.51
49627;BME280;35527;54.616;39.786;2023-03-01T03:33:55;98970.88;;;-5.46;63.97
49627;BME280;35527;54.616;39.786;2023-03-01T03:36:59;98965.00;;;-5.46;63.13
49627;BME280;35527;54.616;39.786;2023-03-01T03:40:03;98964.09;;;-5.50;62.82
49627;BME280;35527;54.616;39.786;2023-03-01T03:43:15;98960.75;;;-5.47;63.47
49627;BME280;35527;54.616;39.786;2023-03-01T03:46:18;98967.41;;;-5.52;62.87
49627;BME280;35527;54.616;39.786;2023-03-01T03:49:22;98966.56;;;-5.53;63.81
49627;BME280;35527;54.616;39.786;2023-03-01T03:52:26;98965.72;;;-5.53;63.30
49627;BME280;35527;54.616;39.786;2023-03-01T03:55:31;98950.56;;;-5.56;63.70
49627;BME280;35527;54.616;39.786;2023-03-01T03:58:37;98959.75;;;-5.63;63.72
49627;BME280;35527;54.616;39.786;2023-03-01T04:01:40;98964.81;;;-5.60;63.85
49627;BME280;35527;54.616;39.786;2023-03-01T04:04:43;98958.78;;;-5.73;62.83
49627;BME280;35527;54.616;39.786;2023-03-01T04:07:48;98941.13;;;-5.74;62.82
49627;BME280;35527;54.616;39.786;2023-03-01T04:10:57;98966.53;;;-5.56;63.37
49627;BME280;35527;54.616;39.786;2023-03-01T04:14:00;98962.19;;;-5.68;63.53
49627;BME280;35527;54.616;39.786;2023-03-01T04:17:03;98974.00;;;-5.65;63.14
49627;BME280;35527;54.616;39.786;2023-03-01T04:20:16;98964.44;;;-5.16;62.97
49627;BME280;35527;54.616;39.786;2023-03-01T04:23:21;98960.91;;;-4.43;60.50
49627;BME280;35527;54.616;39.786;2023-03-01T04:26:24;98969.66;;;-3.81;58.43
49627;BME280;35527;54.616;39.786;2023-03-01T04:29:28;98972.38;;;-3.42;56.31
49627;BME280;35527;54.616;39.786;2023-03-01T04:32:58;98961.50;;;-3.01;55.02
49627;BME280;35527;54.616;39.786;2023-03-01T04:36:05;98971.69;;;-2.56;54.16
49627;BME280;35527;54.616;39.786;2023-03-01T04:39:11;98971.50;;;-1.60;52.43
49627;BME280;35527;54.616;39.786;2023-03-01T04:42:17;98972.78;;;-0.77;49.30
49627;BME280;35527;54.616;39.786;2023-03-01T04:45:22;98976.22;;;-0.87;50.60
49627;BME280;35527;54.616;39.786;2023-03-01T04:48:27;98979.81;;;-0.08;49.66
49627;BME280;35527;54.616;39.786;2023-03-01T04:51:30;98972.66;;;0.94;47.75
49627;BME280;35527;54.616;39.786;2023-03-01T04:54:36;98974.63;;;1.34;44.26
49627;BME280;35527;54.616;39.786;2023-03-01T04:57:39;98967.19;;;1.20;43.04
49627;BME280;35527;54.616;39.786;2023-03-01T05:00:43;98963.75;;;1.24;43.42
49627;BME280;35527;54.616;39.786;2023-03-01T05:03:49;98991.50;;;1.94;41.67
49627;BME280;35527;54.616;39.786;2023-03-01T05:06:54;98981.19;;;2.01;41.77
49627;BME280;35527;54.616;39.786;2023-03-01T05:09:56;98969.84;;;2.16;40.70
49627;BME280;35527;54.616;39.786;2023-03-01T05:12:59;98993.78;;;2.56;40.44
49627;BME280;35527;54.616;39.786;2023-03-01T05:16:07;98986.00;;;2.62;39.65
49627;BME280;35527;54.616;39.786;2023-03-01T05:19:16;98978.44;;;3.71;38.02
49627;BME280;35527;54.616;39.786;2023-03-01T05:22:19;98989.25;;;3.82;37.70
49627;BME280;35527;54.616;39.786;2023-03-01T05:25:22;98998.03;;;4.68;35.97
49627;BME280;35527;54.616;39.786;2023-03-01T05:28:27;98998.22;;;5.20;35.29
49627;BME280;35527;54.616;39.786;2023-03-01T05:31:34;99003.63;;;5.12;35.69
49627;BME280;35527;54.616;39.786;2023-03-01T05:34:37;99014.50;;;4.91;35.39
49627;BME280;35527;54.616;39.786;2023-03-01T05:37:46;99000.16;;;5.13;34.94
49627;BME280;35527;54.616;39.786;2023-03-01T05:40:50;99011.72;;;6.08;33.43
49627;BME280;35527;54.616;39.786;2023-03-01T05:43:57;99010.66;;;6.39;33.44
49627;BME280;35527;54.616;39.786;2023-03-01T05:46:59;98996.25;;;5.83;32.84
49627;BME280;35527;54.616;39.786;2023-03-01T05:50:03;98992.56;;;6.89;32.09
49627;BME280;35527;54.616;39.786;2023-03-01T05:53:10;99022.25;;;7.43;31.00
49627;BME280;35527;54.616;39.786;2023-03-01T05:56:15;98980.94;;;7.46;30.92
49627;BME280;35527;54.616;39.786;2023-03-01T05:59:17;99018.88;;;7.19;31.20
49627;BME280;35527;54.616;39.786;2023-03-01T06:02:21;98992.78;;;8.13;30.11
49627;BME280;35527;54.616;39.786;2023-03-01T06:05:31;99005.41;;;7.56;30.23
49627;BME280;35527;54.616;39.786;2023-03-01T06:08:37;98990.84;;;7.98;29.45
49627;BME280;35527;54.616;39.786;2023-03-01T06:11:40;98986.16;;;7.22;30.43
49627;BME280;35527;54.616;39.786;2023-03-01T06:14:45;99007.75;;;8.05;30.09
49627;BME280;35527;54.616;39.786;2023-03-01T06:17:51;98988.44;;;8.54;28.80
49627;BME280;35527;54.616;39.786;2023-03-01T06:20:56;99014.59;;;6.96;30.19
49627;BME280;35527;54.616;39.786;2023-03-01T06:23:58;99001.59;;;6.03;32.09
49627;BME280;35527;54.616;39.786;2023-03-01T06:27:02;99010.97;;;7.23;30.68
49627;BME280;35527;54.616;39.786;2023-03-01T06:30:06;99037.66;;;6.75;31.22
49627;BME280;35527;54.616;39.786;2023-03-01T06:33:12;99023.63;;;7.52;30.21
49627;BME280;35527;54.616;39.786;2023-03-01T06:36:16;99038.25;;;7.06;31.08
49627;BME280;35527;54.616;39.786;2023-03-01T06:39:20;99029.41;;;7.13;30.35
49627;BME280;35527;54.616;39.786;2023-03-01T06:42:23;99000.34;;;7.33;30.09
49627;BME280;35527;54.616;39.786;2023-03-01T06:45:26;99021.75;;;8.18;29.34
49627;BME280;35527;54.616;39.786;2023-03-01T06:48:29;99021.94;;;9.51;28.08
49627;BME280;35527;54.616;39.786;2023-03-01T06:51:36;99046.72;;;8.18;28.91
49627;BME280;35527;54.616;39.786;2023-03-01T06:54:40;98999.69;;;8.33;29.27
49627;BME280;35527;54.616;39.786;2023-03-01T06:57:43;98992.78;;;8.92;27.71
49627;BME280;35527;54.616;39.786;2023-03-01T07:00:49;99030.22;;;8.22;29.17
49627;BME280;35527;54.616;39.786;2023-03-01T07:03:53;99039.78;;;7.33;29.91
49627;BME280;35527;54.616;39.786;2023-03-01T07:06:58;99047.50;;;7.55;29.79
49627;BME280;35527;54.616;39.786;2023-03-01T07:10:03;99048.19;;;6.68;31.33
49627;BME280;35527;54.616;39.786;2023-03-01T07:13:05;99029.50;;;6.39;31.14
49627;BME280;35527;54.616;39.786;2023-03-01T07:16:11;99053.09;;;6.75;31.12
49627;BME280;35527;54.616;39.786;2023-03-01T07:19:13;99055.25;;;5.84;32.65
49627;BME280;35527;54.616;39.786;2023-03-01T07:22:17;99070.97;;;6.79;32.13
49627;BME280;35527;54.616;39.786;2023-03-01T07:25:20;99068.97;;;5.57;33.04
49627;BME280;35527;54.616;39.786;2023-03-01T07:28:23;99062.91;;;7.11;31.74
49627;BME280;35527;54.616;39.786;2023-03-01T07:31:28;99066.44;;;8.19;29.36
49627;BME280;35527;54.616;39.786;2023-03-01T07:34:34;99069.78;;;8.21;29.93
49627;BME280;35527;54.616;39.786;2023-03-01T07:37:36;99063.94;;;7.53;29.98
49627;BME280;35527;54.616;39.786;2023-03-01T07:40:39;99053.34;;;7.81;30.24
49627;BME280;35527;54.616;39.786;2023-03-01T07:43:42;99061.75;;;6.73;30.56
49627;BME280;35527;54.616;39.786;2023-03-01T07:46:54;99043.81;;;5.95;32.46
49627;BME280;35527;54.616;39.786;2023-03-01T07:49:58;99051.47;;;5.41;33.22
49627;BME280;35527;54.616;39.786;2023-03-01T07:53:01;99076.09;;;6.28;32.54
49627;BME280;35527;54.616;39.786;2023-03-01T07:56:10;99069.28;;;7.25;31.49
49627;BME280;35527;54.616;39.786;2023-03-01T07:59:14;99058.47;;;7.38;30.86
49627;BME280;35527;54.616;39.786;2023-03-01T08:02:17;99048.38;;;7.56;30.69
49627;BME280;35527;54.616;39.786;2023-03-01T08:05:19;99055.19;;;7.57;30.71
49627;BME280;35527;54.616;39.786;2023-03-01T08:08:52;99087.06;;;8.19;29.74
49627;BME280;35527;54.616;39.786;2023-03-01T08:11:57;99070.13;;;7.69;30.34
49627;BME280;35527;54.616;39.786;2023-03-01T08:15:04;99083.97;;;7.88;30.25
49627;BME280;35527;54.616;39.786;2023-03-01T08:18:09;99088.13;;;7.71;30.40
49627;BME280;35527;54.616;39.786;2023-03-01T08:21:14;99083.00;;;8.13;30.02
49627;BME280;35527;54.616;39.786;2023-03-01T08:24:19;99068.31;;;6.80;31.64
49627;BME280;35527;54.616;39.786;2023-03-01T08:27:21;99107.44;;;7.13;31.60
49627;BME280;35527;54.616;39.786;2023-03-01T08:30:25;99092.84;;;6.90;31.79
49627;BME280;35527;54.616;39.786;2023-03-01T08:33:34;99099.59;;;7.16;31.61
49627;BME280;35527;54.616;39.786;2023-03-01T08:36:42;99088.91;;;7.04;31.40
49627;BME280;35527;54.616;39.786;2023-03-01T08:40:12;99091.34;;;7.54;31.51
49627;BME280;35527;54.616;39.786;2023-03-01T08:43:15;99101.84;;;7.26;30.92
49627;BME280;35527;54.616;39.786;2023-03-01T08:46:21;99117.53;;;6.94;32.29
49627;BME280;35527;54.616;39.786;2023-03-01T08:49:23;99113.06;;;6.76;32.28
49627;BME280;35527;54.616;39.786;2023-03-01T08:52:29;99127.22;;;6.63;32.83
49627;BME280;35527;54.616;39.786;2023-03-01T08:55:38;99120.09;;;6.71;33.00
49627;BME280;35527;54.616;39.786;2023-03-01T08:58:46;99108.16;;;6.68;32.55
49627;BME280;35527;54.616;39.786;2023-03-01T09:01:51;99107.38;;;7.15;32.51
49627;BME280;35527;54.616;39.786;2023-03-01T09:04:54;99113.41;;;7.37;31.59
49627;BME280;35527;54.616;39.786;2023-03-01T09:07:57;99099.25;;;7.26;31.47
49627;BME280;35527;54.616;39.786;2023-03-01T09:11:03;99131.91;;;6.76;32.44
49627;BME280;35527;54.616;39.786;2023-03-01T09:14:07;99099.00;;;6.36;33.20
49627;BME280;35527;54.616;39.786;2023-03-01T09:17:09;99121.38;;;6.06;33.89
49627;BME280;35527;54.616;39.786;2023-03-01T09:20:13;99086.78;;;5.61;34.24
49627;BME280;35527;54.616;39.786;2023-03-01T09:23:44;99097.81;;;5.92;34.20
49627;BME280;35527;54.616;39.786;2023-03-01T09:26:49;99091.97;;;6.15;33.82
49627;BME280;35527;54.616;39.786;2023-03-01T09:29:52;99108.31;;;6.12;33.42
49627;BME280;35527;54.616;39.786;2023-03-01T09:33:00;99114.84;;;5.68;34.17
49627;BME280;35527;54.616;39.786;2023-03-01T09:36:09;99122.78;;;6.16;34.25
49627;BME280;35527;54.616;39.786;2023-03-01T09:39:16;99102.63;;;6.29;33.83
49627;BME280;35527;54.616;39.786;2023-03-01T09:42:20;99106.03;;;6.04;34.07
49627;BME280;35527;54.616;39.786;2023-03-01T09:45:33;99118.44;;;5.62;34.86
49627;BME280;35527;54.616;39.786;2023-03-01T09:48:58;99103.16;;;5.57;34.63
49627;BME280;35527;54.616;39.786;2023-03-01T09:56:11;99119.50;;;5.25;35.39
49627;BME280;35527;54.616;39.786;2023-03-01T09:59:33;99096.22;;;5.33;35.32
49627;BME280;35527;54.616;39.786;2023-03-01T10:02:44;99131.31;;;4.34;36.75
49627;BME280;35527;54.616;39.786;2023-03-01T10:06:10;99073.41;;;3.94;37.56
49627;BME280;35527;54.616;39.786;2023-03-01T10:09:33;99116.03;;;4.31;36.88
49627;BME280;35527;54.616;39.786;2023-03-01T10:12:41;99098.59;;;3.38;38.80
49627;BME280;35527;54.616;39.786;2023-03-01T10:15:50;99110.44;;;3.79;38.20
49627;BME280;35527;54.616;39.786;2023-03-01T10:19:00;99133.31;;;3.06;39.72
49627;BME280;35527;54.616;39.786;2023-03-01T10:29:10;99133.97;;;3.16;39.86
49627;BME280;35527;54.616;39.786;2023-03-01T10:32:20;99119.75;;;3.43;39.17
49627;BME280;35527;54.616;39.786;2023-03-01T10:35:29;99123.59;;;3.63;38.93
49627;BME280;35527;54.616;39.786;2023-03-01T10:38:56;99107.88;;;3.79;38.49
49627;BME280;35527;54.616;39.786;2023-03-01T10:42:04;99111.72;;;3.97;38.40
49627;BME280;35527;54.616;39.786;2023-03-01T10:48:36;99136.34;;;3.25;39.11
49627;BME280;35527;54.616;39.786;2023-03-01T10:51:42;99113.16;;;3.33;39.25
49627;BME280;35527;54.616;39.786;2023-03-01T10:54:55;99133.44;;;3.42;39.26
49627;BME280;35527;54.616;39.786;2023-03-01T11:04:20;99111.09;;;3.10;40.03
49627;BME280;35527;54.616;39.786;2023-03-01T11:07:25;99129.31;;;3.75;38.25
49627;BME280;35527;54.616;39.786;2023-03-01T11:10:32;99098.22;;;3.55;38.37
49627;BME280;35527;54.616;39.786;2023-03-01T11:13:36;99125.22;;;2.84;39.46
49627;BME280;35527;54.616;39.786;2023-03-01T11:16:48;99123.63;;;2.77;40.69
49627;BME280;35527;54.616;39.786;2023-03-01T11:20:31;99098.78;;;2.85;39.83
49627;BME280;35527;54.616;39.786;2023-03-01T11:23:39;99111.56;;;2.85;40.25
49627;BME280;35527;54.616;39.786;2023-03-01T11:26:52;99142.38;;;2.78;40.21
49627;BME280;35527;54.616;39.786;2023-03-01T11:33:17;99145.19;;;2.13;41.78
49627;BME280;35527;54.616;39.786;2023-03-01T11:36:58;99152.19;;;1.98;41.84
49627;BME280;35527;54.616;39.786;2023-03-01T11:40:12;99122.66;;;1.84;41.45
49627;BME280;35527;54.616;39.786;2023-03-01T11:43:26;99155.97;;;1.73;42.02
49627;BME280;35527;54.616;39.786;2023-03-01T11:46:45;99143.03;;;1.23;42.50
49627;BME280;35527;54.616;39.786;2023-03-01T11:49:58;99151.13;;;0.83;43.82
49627;BME280;35527;54.616;39.786;2023-03-01T12:29:02;99207.84;;;-0.09;46.02
49627;BME280;35527;54.616;39.786;2023-03-01T12:39:14;99190.84;;;0.01;46.77
49627;BME280;35527;54.616;39.786;2023-03-01T12:49:43;99160.03;;;0.38;45.92
49627;BME280;35527;54.616;39.786;2023-03-01T12:52:56;99187.06;;;0.50;45.58
49627;BME280;35527;54.616;39.786;2023-03-01T12:56:12;99173.78;;;0.14;46.08
49627;BME280;35527;54.616;39.786;2023-03-01T12:59:18;99204.25;;;0.23;45.87
49627;BME280;35527;54.616;39.786;2023-03-01T13:02:46;99213.78;;;-0.10;47.25
49627;BME280;35527;54.616;39.786;2023-03-01T13:06:58;99204.47;;;-0.11;46.48
49627;BME280;35527;54.616;39.786;2023-03-01T13:13:32;99209.34;;;0.23;46.69
49627;BME280;35527;54.616;39.786;2023-03-01T13:16:40;99160.41;;;-0.11;47.21
49627;BME280;35527;54.616;39.786;2023-03-01T13:19:58;99171.53;;;-0.35;47.38
49627;BME280;35527;54.616;39.786;2023-03-01T13:26:26;99170.75;;;-0.45;47.60
49627;BME280;35527;54.616;39.786;2023-03-01T13:39:39;99192.03;;;-0.69;48.70
49627;BME280;35527;54.616;39.786;2023-03-01T13:43:28;99188.63;;;-0.63;48.86
49627;BME280;35527;54.616;39.786;2023-03-01T13:46:32;99197.13;;;-0.74;49.01
49627;BME280;35527;54.616;39.786;2023-03-01T13:49:55;99196.31;;;-0.74;48.92
49627;BME280;35527;54.616;39.786;2023-03-01T13:53:14;99188.72;;;-0.93;48.91
49627;BME280;35527;54.616;39.786;2023-03-01T13:56:23;99154.13;;;-1.26;49.60
49627;BME280;35527;54.616;39.786;2023-03-01T13:59:28;99215.03;;;-1.27;49.97
49627;BME280;35527;54.616;39.786;2023-03-01T14:02:34;99212.50;;;-1.40;51.13
49627;BME280;35527;54.616;39.786;2023-03-01T14:05:40;99186.28;;;-1.51;50.89
49627;BME280;35527;54.616;39.786;2023-03-01T14:09:23;99202.34;;;-1.47;50.20
49627;BME280;35527;54.616;39.786;2023-03-01T14:12:59;99199.81;;;-1.67;51.28
49627;BME280;35527;54.616;39.786;2023-03-01T14:16:19;99217.56;;;-1.70;51.56
49627;BME280;35527;54.616;39.786;2023-03-01T14:19:33;99196.41;;;-1.92;52.07
49627;BME280;35527;54.616;39.786;2023-03-01T14:22:40;99212.50;;;-1.89;52.64
49627;BME280;35527;54.616;39.786;2023-03-01T14:25:56;99220.94;;;-1.85;52.53
49627;BME280;35527;54.616;39.786;2023-03-01T14:29:00;99217.53;;;-2.01;53.03
49627;BME280;35527;54.616;39.786;2023-03-01T14:32:27;99220.06;;;-2.07;52.38
49627;BME280;35527;54.616;39.786;2023-03-01T14:35:34;99231.84;;;-2.24;54.10
49627;BME280;35527;54.616;39.786;2023-03-01T14:38:44;99215.75;;;-2.40;53.74
49627;BME280;35527;54.616;39.786;2023-03-01T14:41:50;99218.25;;;-2.48;54.14
49627;BME280;35527;54.616;39.786;2023-03-01T14:44:58;99198.75;;;-2.67;55.02
49627;BME280;35527;54.616;39.786;2023-03-01T14:48:05;99213.91;;;-2.75;54.52
49627;BME280;35527;54.616;39.786;2023-03-01T14:51:12;99233.31;;;-2.76;55.43
49627;BME280;35527;54.616;39.786;2023-03-01T14:54:27;99231.63;;;-2.77;55.63
49627;BME280;35527;54.616;39.786;2023-03-01T14:57:32;99218.84;;;-2.98;55.38
49627;BME280;35527;54.616;39.786;2023-03-01T15:00:35;99218.00;;;-2.96;55.60
49627;BME280;35527;54.616;39.786;2023-03-01T15:03:49;99229.81;;;-2.99;56.29
49627;BME280;35527;54.616;39.786;2023-03-01T15:06:57;99223.81;;;-3.17;55.54
49627;BME280;35527;54.616;39.786;2023-03-01T15:10:17;99204.28;;;-3.36;56.10
49627;BME280;35527;54.616;39.786;2023-03-01T15:13:24;99228.78;;;-3.29;56.56
49627;BME280;35527;54.616;39.786;2023-03-01T15:16:33;99237.25;;;-3.22;56.47
49627;BME280;35527;54.616;39.786;2023-03-01T15:19:37;99215.19;;;-3.46;55.84
49627;BME280;35527;54.616;39.786;2023-03-01T15:22:43;99216.00;;;-3.44;56.04
49627;BME280;35527;54.616;39.786;2023-03-01T15:25:52;99225.31;;;-3.43;56.33
49627;BME280;35527;54.616;39.786;2023-03-01T15:29:02;99201.44;;;-3.73;56.86
49627;BME280;35527;54.616;39.786;2023-03-01T15:32:33;99258.16;;;-3.45;57.24
49627;BME280;35527;54.616;39.786;2023-03-01T15:35:43;99230.28;;;-3.54;57.27
49627;BME280;35527;54.616;39.786;2023-03-01T15:38:52;99227.59;;;-3.71;57.29
49627;BME280;35527;54.616;39.786;2023-03-01T15:41:58;99232.75;;;-3.58;57.21
49627;BME280;35527;54.616;39.786;2023-03-01T15:45:19;99244.59;;;-3.53;57.20
49627;BME280;35527;54.616;39.786;2023-03-01T15:48:23;99210.72;;;-3.73;57.86
49627;BME280;35527;54.616;39.786;2023-03-01T15:51:37;99236.91;;;-3.64;57.51
49627;BME280;35527;54.616;39.786;2023-03-01T15:54:40;99239.47;;;-3.62;57.78
49627;BME280;35527;54.616;39.786;2023-03-01T15:57:44;99231.84;;;-3.67;57.74
49627;BME280;35527;54.616;39.786;2023-03-01T16:00:49;99239.59;;;-3.47;57.46
49627;BME280;35527;54.616;39.786;2023-03-01T16:04:03;99252.28;;;-3.41;56.88
49627;BME280;35527;54.616;39.786;2023-03-01T16:07:08;99228.53;;;-3.58;57.11
49627;BME280;35527;54.616;39.786;2023-03-01T16:10:13;99240.38;;;-3.54;57.39
49627;BME280;35527;54.616;39.786;2023-03-01T16:13:17;99247.16;;;-3.51;57.71
49627;BME280;35527;54.616;39.786;2023-03-01T16:16:24;99233.53;;;-3.69;57.87
49627;BME280;35527;54.616;39.786;2023-03-01T16:19:31;99221.63;;;-3.80;57.88
49627;BME280;35527;54.616;39.786;2023-03-01T16:22:35;99242.84;;;-3.62;58.16
49627;BME280;35527;54.616;39.786;2023-03-01T16:25:38;99249.56;;;-3.64;57.88
49627;BME280;35527;54.616;39.786;2023-03-01T16:28:45;99239.44;;;-3.67;57.93
49627;BME280;35527;54.616;39.786;2023-03-01T16:31:48;99214.06;;;-3.77;58.19
49627;BME280;35527;54.616;39.786;2023-03-01T16:34:54;99243.69;;;-3.61;58.42
49627;BME280;35527;54.616;39.786;2023-03-01T16:37:59;99249.63;;;-3.60;58.65
49627;BME280;35527;54.616;39.786;2023-03-01T16:41:03;99244.50;;;-3.65;58.54
49627;BME280;35527;54.616;39.786;2023-03-01T16:44:06;99248.72;;;-3.64;58.70
49627;BME280;35527;54.616;39.786;2023-03-01T16:47:10;99232.59;;;-3.75;58.02
49627;BME280;35527;54.616;39.786;2023-03-01T16:50:15;99232.56;;;-3.81;58.38
49627;BME280;35527;54.616;39.786;2023-03-01T16:53:18;99199.66;;;-3.88;58.52
49627;BME280;35527;54.616;39.786;2023-03-01T16:56:24;99219.91;;;-3.83;57.91
49627;BME280;35527;54.616;39.786;2023-03-01T16:59:27;99248.66;;;-3.73;58.33
49627;BME280;35527;54.616;39.786;2023-03-01T17:02:31;99244.59;;;-3.57;57.92
49627;BME280;35527;54.616;39.786;2023-03-01T17:05:34;99253.09;;;-3.48;57.74
49627;BME280;35527;54.616;39.786;2023-03-01T17:08:40;99249.75;;;-3.41;56.56
49627;BME280;35527;54.616;39.786;2023-03-01T17:11:44;99232.91;;;-3.40;56.89
49627;BME280;35527;54.616;39.786;2023-03-01T17:14:47;99255.78;;;-3.28;57.19
49627;BME280;35527;54.616;39.786;2023-03-01T17:17:52;99231.34;;;-3.23;56.52
49627;BME280;35527;54.616;39.786;2023-03-01T17:20:56;99245.59;;;-3.34;56.41
49627;BME280;35527;54.616;39.786;2023-03-01T17:24:01;99233.84;;;-3.29;56.17
49627;BME280;35527;54.616;39.786;2023-03-01T17:27:06;99241.44;;;-3.27;56.20
49627;BME280;35527;54.616;39.786;2023-03-01T17:30:12;99246.56;;;-3.17;55.92
49627;BME280;35527;54.616;39.786;2023-03-01T17:33:17;99222.72;;;-3.49;55.56
49627;BME280;35527;54.616;39.786;2023-03-01T17:36:21;99226.81;;;-3.65;55.34
49627;BME280;35527;54.616;39.786;2023-03-01T17:39:24;99243.66;;;-3.66;56.17
49627;BME280;35527;54.616;39.786;2023-03-01T17:42:32;99243.72;;;-3.59;56.62
49627;BME280;35527;54.616;39.786;2023-03-01T17:45:38;99242.81;;;-3.68;55.85
49627;BME280;35527;54.616;39.786;2023-03-01T17:48:42;99261.38;;;-3.61;56.58
49627;BME280;35527;54.616;39.786;2023-03-01T17:51:47;99253.78;;;-3.66;56.33
49627;BME280;35527;54.616;39.786;2023-03-01T17:54:50;99211.56;;;-3.74;56.13
49627;BME280;35527;54.616;39.786;2023-03-01T17:57:54;99225.91;;;-3.70;55.75
49627;BME280;35527;54.616;39.786;2023-03-01T18:04:10;99253.09;;;-3.45;56.38
49627;BME280;35527;54.616;39.786;2023-03-01T18:07:17;99243.00;;;-3.45;55.46
49627;BME280;35527;54.616;39.786;2023-03-01T18:10:20;99242.94;;;-3.49;56.45